sensor_id;sensor_type;location;lat;lon;timestamp;P1;durP1;ratioP1;P2;durP2;ratioP2
30181;SDS011;16990;49.056;9.240;2022-12-18T00:01:36;116.68;;;42.13;;
30181;SDS011;16990;49.056;9.240;2022-12-18T00:04:04;108.35;;;43.22;;
30181;SDS011;16990;49.056;9.240;2022-12-18T00:06:31;115.15;;;42.88;;
30181;SDS011;16990;49.056;9.240;2022-12-18T00:08:58;102.13;;;39.83;;
30181;SDS011;16990;49.056;9.240;2022-12-18T00:11:28;104.78;;;40.45;;
30181;SDS011;16990;49.056;9.240;2022-12-18T00:13:56;128.73;;;41.65;;
30181;SDS011;16990;49.056;9.240;2022-12-18T00:16:23;112.20;;;42.40;;
30181;SDS011;16990;49.056;9.240;2022-12-18T00:18:50;113.25;;;40.08;;
30181;SDS011;16990;49.056;9.240;2022-12-18T00:21:18;103.90;;;40.83;;
30181;SDS011;16990;49.056;9.240;2022-12-18T00:23:45;118.82;;;42.35;;
30181;SDS011;16990;49.056;9.240;2022-12-18T00:26:13;104.78;;;40.35;;
30181;SDS011;16990;49.056;9.240;2022-12-18T00:28:41;114.95;;;42.05;;
30181;SDS011;16990;49.056;9.240;2022-12-18T00:31:09;106.22;;;40.85;;
30181;SDS011;16990;49.056;9.240;2022-12-18T00:33:36;114.75;;;44.22;;
30181;SDS011;16990;49.056;9.240;2022-12-18T00:36:03;146.95;;;47.20;;
30181;SDS011;16990;49.056;9.240;2022-12-18T00:38:29;126.22;;;45.78;;
30181;SDS011;16990;49.056;9.240;2022-12-18T00:40:55;114.65;;;43.05;;
30181;SDS011;16990;49.056;9.240;2022-12-18T00:43:22;140.10;;;45.67;;
30181;SDS011;16990;49.056;9.240;2022-12-18T00:45:49;101.75;;;43.45;;
30181;SDS011;16990;49.056;9.240;2022-12-18T00:48:16;122.03;;;43.63;;
30181;SDS011;16990;49.056;9.240;2022-12-18T00:50:42;114.93;;;42.45;;
30181;SDS011;16990;49.056;9.240;2022-12-18T00:53:08;137.27;;;46.35;;
30181;SDS011;16990;49.056;9.240;2022-12-18T00:55:36;125.07;;;45.03;;
30181;SDS011;16990;49.056;9.240;2022-12-18T00:58:03;119.35;;;41.42;;
30181;SDS011;16990;49.056;9.240;2022-12-18T01:00:29;109.05;;;42.03;;
30181;SDS011;16990;49.056;9.240;2022-12-18T01:02:57;104.18;;;41.28;;
30181;SDS011;16990;49.056;9.240;2022-12-18T01:05:24;107.35;;;41.08;;
30181;SDS011;16990;49.056;9.240;2022-12-18T01:07:50;100.50;;;38.92;;
30181;SDS011;16990;49.056;9.240;2022-12-18T01:10:17;91.25;;;37.17;;
30181;SDS011;16990;49.056;9.240;2022-12-18T01:12:43;86.93;;;37.45;;
30181;SDS011;16990;49.056;9.240;2022-12-18T01:15:10;115.53;;;41.45;;
30181;SDS011;16990;49.056;9.240;2022-12-18T01:17:37;119.18;;;44.80;;
30181;SDS011;16990;49.056;9.240;2022-12-18T01:20:06;116.55;;;42.00;;
30181;SDS011;16990;49.056;9.240;2022-12-18T01:22:33;102.78;;;40.78;;
30181;SDS011;16990;49.056;9.240;2022-12-18T01:25:00;111.13;;;40.35;;
30181;SDS011;16990;49.056;9.240;2022-12-18T01:27:26;113.53;;;41.45;;
30181;SDS011;16990;49.056;9.240;2022-12-18T01:29:53;118.72;;;40.47;;
30181;SDS011;16990;49.056;9.240;2022-12-18T01:32:19;122.22;;;41.88;;
30181;SDS011;16990;49.056;9.240;2022-12-18T01:34:47;118.15;;;41.40;;
30181;SDS011;16990;49.056;9.240;2022-12-18T01:37:14;125.13;;;43.30;;
30181;SDS011;16990;49.056;9.240;2022-12-18T01:39:41;107.53;;;41.58;;
30181;SDS011;16990;49.056;9.240;2022-12-18T01:42:10;113.75;;;43.13;;
30181;SDS011;16990;49.056;9.240;2022-12-18T01:44:54;110.00;;;39.63;;
30181;SDS011;16990;49.056;9.240;2022-12-18T01:47:21;107.78;;;39.30;;
30181;SDS011;16990;49.056;9.240;2022-12-18T01:49:49;108.20;;;41.00;;
30181;SDS011;16990;49.056;9.240;2022-12-18T01:52:17;96.82;;;38.03;;
30181;SDS011;16990;49.056;9.240;2022-12-18T01:54:45;95.55;;;39.95;;
30181;SDS011;16990;49.056;9.240;2022-12-18T01:57:12;103.85;;;40.10;;
30181;SDS011;16990;49.056;9.240;2022-12-18T01:59:39;98.80;;;40.58;;
30181;SDS011;16990;49.056;9.240;2022-12-18T02:02:07;94.50;;;37.45;;
30181;SDS011;16990;49.056;9.240;2022-12-18T02:04:34;110.88;;;40.03;;
30181;SDS011;16990;49.056;9.240;2022-12-18T02:07:03;94.70;;;38.13;;
30181;SDS011;16990;49.056;9.240;2022-12-18T02:09:35;111.87;;;41.67;;
30181;SDS011;16990;49.056;9.240;2022-12-18T02:12:05;95.82;;;39.03;;
30181;SDS011;16990;49.056;9.240;2022-12-18T02:14:35;111.70;;;38.67;;
30181;SDS011;16990;49.056;9.240;2022-12-18T02:17:05;112.93;;;40.70;;
30181;SDS011;16990;49.056;9.240;2022-12-18T02:19:47;134.68;;;45.50;;
30181;SDS011;16990;49.056;9.240;2022-12-18T02:22:25;104.72;;;40.00;;
30181;SDS011;16990;49.056;9.240;2022-12-18T02:24:57;113.35;;;38.20;;
30181;SDS011;16990;49.056;9.240;2022-12-18T02:27:27;90.40;;;32.73;;
30181;SDS011;16990;49.056;9.240;2022-12-18T02:29:54;108.15;;;39.15;;
30181;SDS011;16990;49.056;9.240;2022-12-18T02:32:22;98.85;;;36.47;;
30181;SDS011;16990;49.056;9.240;2022-12-18T02:34:51;98.65;;;36.92;;
30181;SDS011;16990;49.056;9.240;2022-12-18T02:37:18;91.30;;;35.10;;
30181;SDS011;16990;49.056;9.240;2022-12-18T02:39:46;91.80;;;36.33;;
30181;SDS011;16990;49.056;9.240;2022-12-18T02:42:13;93.00;;;37.15;;
30181;SDS011;16990;49.056;9.240;2022-12-18T02:44:45;94.10;;;36.83;;
30181;SDS011;16990;49.056;9.240;2022-12-18T02:47:12;99.85;;;37.85;;
30181;SDS011;16990;49.056;9.240;2022-12-18T02:49:41;98.97;;;37.88;;
30181;SDS011;16990;49.056;9.240;2022-12-18T02:52:13;95.65;;;35.40;;
30181;SDS011;16990;49.056;9.240;2022-12-18T02:54:47;87.15;;;34.00;;
30181;SDS011;16990;49.056;9.240;2022-12-18T02:59:45;100.80;;;34.95;;
30181;SDS011;16990;49.056;9.240;2022-12-18T03:02:16;87.93;;;34.35;;
30181;SDS011;16990;49.056;9.240;2022-12-18T03:04:44;94.13;;;36.40;;
30181;SDS011;16990;49.056;9.240;2022-12-18T03:07:15;86.07;;;35.53;;
30181;SDS011;16990;49.056;9.240;2022-12-18T03:09:43;87.15;;;33.58;;
30181;SDS011;16990;49.056;9.240;2022-12-18T03:12:12;88.35;;;34.83;;
30181;SDS011;16990;49.056;9.240;2022-12-18T03:14:52;99.05;;;35.38;;
30181;SDS011;16990;49.056;9.240;2022-12-18T03:17:20;84.97;;;33.72;;
30181;SDS011;16990;49.056;9.240;2022-12-18T03:19:49;100.47;;;35.13;;
30181;SDS011;16990;49.056;9.240;2022-12-18T03:22:15;89.63;;;34.58;;
30181;SDS011;16990;49.056;9.240;2022-12-18T03:24:42;90.13;;;34.67;;
30181;SDS011;16990;49.056;9.240;2022-12-18T03:27:09;87.88;;;35.40;;
30181;SDS011;16990;49.056;9.240;2022-12-18T03:29:37;89.35;;;36.05;;
30181;SDS011;16990;49.056;9.240;2022-12-18T03:32:07;86.57;;;35.50;;
30181;SDS011;16990;49.056;9.240;2022-12-18T03:34:35;92.78;;;34.75;;
30181;SDS011;16990;49.056;9.240;2022-12-18T03:37:03;77.85;;;31.83;;
30181;SDS011;16990;49.056;9.240;2022-12-18T03:39:30;83.90;;;34.05;;
30181;SDS011;16990;49.056;9.240;2022-12-18T03:41:58;94.60;;;36.40;;
30181;SDS011;16990;49.056;9.240;2022-12-18T03:44:28;90.78;;;33.67;;
30181;SDS011;16990;49.056;9.240;2022-12-18T03:46:57;89.70;;;34.83;;
30181;SDS011;16990;49.056;9.240;2022-12-18T03:49:27;89.15;;;31.73;;
30181;SDS011;16990;49.056;9.240;2022-12-18T03:51:59;82.88;;;32.25;;
30181;SDS011;16990;49.056;9.240;2022-12-18T03:54:27;91.10;;;32.13;;
30181;SDS011;16990;49.056;9.240;2022-12-18T03:56:56;79.70;;;32.42;;
30181;SDS011;16990;49.056;9.240;2022-12-18T03:59:23;79.13;;;32.67;;
30181;SDS011;16990;49.056;9.240;2022-12-18T04:01:50;84.18;;;33.75;;
30181;SDS011;16990;49.056;9.240;2022-12-18T04:04:18;82.75;;;33.33;;
30181;SDS011;16990;49.056;9.240;2022-12-18T04:06:46;78.57;;;32.25;;
30181;SDS011;16990;49.056;9.240;2022-12-18T04:09:14;75.18;;;32.10;;
30181;SDS011;16990;49.056;9.240;2022-12-18T04:11:40;87.30;;;34.10;;
30181;SDS011;16990;49.056;9.240;2022-12-18T04:14:08;86.63;;;33.92;;
30181;SDS011;16990;49.056;9.240;2022-12-18T04:16:35;88.63;;;34.63;;
30181;SDS011;16990;49.056;9.240;2022-12-18T04:19:02;81.43;;;34.47;;
30181;SDS011;16990;49.056;9.240;2022-12-18T04:21:28;98.93;;;35.13;;
30181;SDS011;16990;49.056;9.240;2022-12-18T04:23:56;88.63;;;33.50;;
30181;SDS011;16990;49.056;9.240;2022-12-18T04:26:23;70.50;;;29.63;;
30181;SDS011;16990;49.056;9.240;2022-12-18T04:28:49;75.65;;;30.50;;
30181;SDS011;16990;49.056;9.240;2022-12-18T04:31:16;75.22;;;29.67;;
30181;SDS011;16990;49.056;9.240;2022-12-18T04:33:42;91.30;;;34.05;;
30181;SDS011;16990;49.056;9.240;2022-12-18T04:36:09;86.15;;;33.15;;
30181;SDS011;16990;49.056;9.240;2022-12-18T04:38:37;86.00;;;33.25;;
30181;SDS011;16990;49.056;9.240;2022-12-18T04:41:05;75.93;;;32.95;;
30181;SDS011;16990;49.056;9.240;2022-12-18T04:43:31;94.80;;;33.15;;
30181;SDS011;16990;49.056;9.240;2022-12-18T04:46:01;92.93;;;35.28;;
30181;SDS011;16990;49.056;9.240;2022-12-18T04:48:28;109.32;;;39.88;;
30181;SDS011;16990;49.056;9.240;2022-12-18T04:50:54;89.32;;;34.03;;
30181;SDS011;16990;49.056;9.240;2022-12-18T04:53:21;90.78;;;35.67;;
30181;SDS011;16990;49.056;9.240;2022-12-18T04:55:47;88.90;;;32.60;;
30181;SDS011;16990;49.056;9.240;2022-12-18T04:58:15;91.30;;;34.28;;
30181;SDS011;16990;49.056;9.240;2022-12-18T05:00:42;83.63;;;32.67;;
30181;SDS011;16990;49.056;9.240;2022-12-18T05:03:08;89.10;;;34.42;;
30181;SDS011;16990;49.056;9.240;2022-12-18T05:05:35;83.05;;;33.70;;
30181;SDS011;16990;49.056;9.240;2022-12-18T05:08:01;90.03;;;35.38;;
30181;SDS011;16990;49.056;9.240;2022-12-18T05:10:28;93.40;;;36.17;;
30181;SDS011;16990;49.056;9.240;2022-12-18T05:12:54;93.03;;;36.17;;
30181;SDS011;16990;49.056;9.240;2022-12-18T05:15:25;87.30;;;33.72;;
30181;SDS011;16990;49.056;9.240;2022-12-18T05:17:52;86.00;;;33.72;;
30181;SDS011;16990;49.056;9.240;2022-12-18T05:20:18;86.13;;;34.30;;
30181;SDS011;16990;49.056;9.240;2022-12-18T05:22:45;98.60;;;33.80;;
30181;SDS011;16990;49.056;9.240;2022-12-18T05:25:11;86.10;;;33.85;;
30181;SDS011;16990;49.056;9.240;2022-12-18T05:27:38;85.10;;;32.95;;
30181;SDS011;16990;49.056;9.240;2022-12-18T05:30:04;76.63;;;30.50;;
30181;SDS011;16990;49.056;9.240;2022-12-18T05:32:32;79.35;;;31.20;;
30181;SDS011;16990;49.056;9.240;2022-12-18T05:34:59;77.78;;;29.55;;
30181;SDS011;16990;49.056;9.240;2022-12-18T05:37:26;82.45;;;30.15;;
30181;SDS011;16990;49.056;9.240;2022-12-18T05:39:52;106.25;;;39.35;;
30181;SDS011;16990;49.056;9.240;2022-12-18T05:42:19;99.82;;;38.88;;
30181;SDS011;16990;49.056;9.240;2022-12-18T05:44:45;90.88;;;38.30;;
30181;SDS011;16990;49.056;9.240;2022-12-18T05:47:12;82.65;;;34.47;;
30181;SDS011;16990;49.056;9.240;2022-12-18T05:49:40;84.22;;;31.05;;
30181;SDS011;16990;49.056;9.240;2022-12-18T05:52:06;85.32;;;29.90;;
30181;SDS011;16990;49.056;9.240;2022-12-18T05:54:33;90.40;;;31.50;;
30181;SDS011;16990;49.056;9.240;2022-12-18T05:56:59;78.10;;;30.85;;
30181;SDS011;16990;49.056;9.240;2022-12-18T05:59:26;77.43;;;28.95;;
30181;SDS011;16990;49.056;9.240;2022-12-18T06:01:52;77.47;;;29.40;;
30181;SDS011;16990;49.056;9.240;2022-12-18T06:04:19;88.30;;;31.52;;
30181;SDS011;16990;49.056;9.240;2022-12-18T06:06:46;76.70;;;29.48;;
30181;SDS011;16990;49.056;9.240;2022-12-18T06:09:13;77.53;;;30.00;;
30181;SDS011;16990;49.056;9.240;2022-12-18T06:11:39;83.43;;;32.13;;
30181;SDS011;16990;49.056;9.240;2022-12-18T06:14:06;76.25;;;29.88;;
30181;SDS011;16990;49.056;9.240;2022-12-18T06:16:32;79.85;;;32.40;;
30181;SDS011;16990;49.056;9.240;2022-12-18T06:18:59;70.55;;;29.50;;
30181;SDS011;16990;49.056;9.240;2022-12-18T06:21:26;87.32;;;30.63;;
30181;SDS011;16990;49.056;9.240;2022-12-18T06:23:54;82.03;;;30.67;;
30181;SDS011;16990;49.056;9.240;2022-12-18T06:26:21;83.93;;;33.05;;
30181;SDS011;16990;49.056;9.240;2022-12-18T06:28:47;80.78;;;31.55;;
30181;SDS011;16990;49.056;9.240;2022-12-18T06:31:14;81.75;;;32.30;;
30181;SDS011;16990;49.056;9.240;2022-12-18T06:33:40;92.88;;;33.90;;
30181;SDS011;16990;49.056;9.240;2022-12-18T06:36:08;83.88;;;32.58;;
30181;SDS011;16990;49.056;9.240;2022-12-18T06:38:35;98.70;;;33.92;;
30181;SDS011;16990;49.056;9.240;2022-12-18T06:41:07;82.45;;;32.63;;
30181;SDS011;16990;49.056;9.240;2022-12-18T06:43:33;121.63;;;41.78;;
30181;SDS011;16990;49.056;9.240;2022-12-18T06:46:00;104.28;;;37.65;;
30181;SDS011;16990;49.056;9.240;2022-12-18T06:48:26;107.43;;;36.22;;
30181;SDS011;16990;49.056;9.240;2022-12-18T06:50:52;94.65;;;35.00;;
30181;SDS011;16990;49.056;9.240;2022-12-18T06:53:19;89.32;;;34.55;;
30181;SDS011;16990;49.056;9.240;2022-12-18T06:55:45;112.03;;;37.20;;
30181;SDS011;16990;49.056;9.240;2022-12-18T06:58:13;85.45;;;34.75;;
30181;SDS011;16990;49.056;9.240;2022-12-18T07:00:40;102.88;;;35.28;;
30181;SDS011;16990;49.056;9.240;2022-12-18T07:03:06;97.65;;;36.10;;
30181;SDS011;16990;49.056;9.240;2022-12-18T07:05:33;96.93;;;36.42;;
30181;SDS011;16990;49.056;9.240;2022-12-18T07:07:59;109.55;;;37.70;;
30181;SDS011;16990;49.056;9.240;2022-12-18T07:10:25;101.60;;;34.78;;
30181;SDS011;16990;49.056;9.240;2022-12-18T07:12:52;102.85;;;35.08;;
30181;SDS011;16990;49.056;9.240;2022-12-18T07:15:20;100.13;;;35.45;;
30181;SDS011;16990;49.056;9.240;2022-12-18T07:17:46;86.47;;;35.25;;
30181;SDS011;16990;49.056;9.240;2022-12-18T07:20:12;86.75;;;35.33;;
30181;SDS011;16990;49.056;9.240;2022-12-18T07:22:39;80.43;;;33.80;;
30181;SDS011;16990;49.056;9.240;2022-12-18T07:25:06;94.95;;;37.42;;
30181;SDS011;16990;49.056;9.240;2022-12-18T07:27:33;84.88;;;34.05;;
30181;SDS011;16990;49.056;9.240;2022-12-18T07:30:00;95.93;;;35.75;;
30181;SDS011;16990;49.056;9.240;2022-12-18T07:32:28;97.75;;;33.83;;
30181;SDS011;16990;49.056;9.240;2022-12-18T07:34:54;85.85;;;31.67;;
30181;SDS011;16990;49.056;9.240;2022-12-18T07:37:20;100.95;;;34.20;;
30181;SDS011;16990;49.056;9.240;2022-12-18T07:39:47;90.95;;;34.67;;
30181;SDS011;16990;49.056;9.240;2022-12-18T07:42:13;117.78;;;37.13;;
30181;SDS011;16990;49.056;9.240;2022-12-18T07:44:58;103.97;;;37.45;;
30181;SDS011;16990;49.056;9.240;2022-12-18T07:47:24;97.82;;;35.35;;
30181;SDS011;16990;49.056;9.240;2022-12-18T07:49:52;78.95;;;32.80;;
30181;SDS011;16990;49.056;9.240;2022-12-18T07:52:19;91.18;;;32.90;;
30181;SDS011;16990;49.056;9.240;2022-12-18T07:54:45;90.70;;;35.42;;
30181;SDS011;16990;49.056;9.240;2022-12-18T07:57:14;104.70;;;36.25;;
30181;SDS011;16990;49.056;9.240;2022-12-18T07:59:40;102.25;;;37.00;;
30181;SDS011;16990;49.056;9.240;2022-12-18T08:02:06;96.82;;;38.17;;
30181;SDS011;16990;49.056;9.240;2022-12-18T08:04:33;92.95;;;36.40;;
30181;SDS011;16990;49.056;9.240;2022-12-18T08:07:01;91.63;;;38.15;;
30181;SDS011;16990;49.056;9.240;2022-12-18T08:09:27;90.63;;;36.85;;
30181;SDS011;16990;49.056;9.240;2022-12-18T08:11:53;88.53;;;38.40;;
30181;SDS011;16990;49.056;9.240;2022-12-18T08:14:20;95.32;;;39.30;;
30181;SDS011;16990;49.056;9.240;2022-12-18T08:16:46;98.05;;;38.80;;
30181;SDS011;16990;49.056;9.240;2022-12-18T08:19:13;97.80;;;41.78;;
30181;SDS011;16990;49.056;9.240;2022-12-18T08:21:39;112.97;;;40.47;;
30181;SDS011;16990;49.056;9.240;2022-12-18T08:24:08;107.22;;;40.08;;
30181;SDS011;16990;49.056;9.240;2022-12-18T08:26:35;105.40;;;41.20;;
30181;SDS011;16990;49.056;9.240;2022-12-18T08:29:01;77.55;;;37.40;;
30181;SDS011;16990;49.056;9.240;2022-12-18T08:31:28;92.00;;;37.72;;
30181;SDS011;16990;49.056;9.240;2022-12-18T08:33:55;90.43;;;36.53;;
30181;SDS011;16990;49.056;9.240;2022-12-18T08:36:22;86.82;;;36.55;;
30181;SDS011;16990;49.056;9.240;2022-12-18T08:38:49;82.72;;;34.60;;
30181;SDS011;16990;49.056;9.240;2022-12-18T08:41:17;87.18;;;36.65;;
30181;SDS011;16990;49.056;9.240;2022-12-18T08:43:43;98.88;;;37.75;;
30181;SDS011;16990;49.056;9.240;2022-12-18T08:46:30;109.55;;;40.40;;
30181;SDS011;16990;49.056;9.240;2022-12-18T08:48:57;103.22;;;42.85;;
30181;SDS011;16990;49.056;9.240;2022-12-18T08:51:24;100.45;;;39.72;;
30181;SDS011;16990;49.056;9.240;2022-12-18T08:53:50;101.32;;;42.88;;
30181;SDS011;16990;49.056;9.240;2022-12-18T08:56:18;112.35;;;41.78;;
30181;SDS011;16990;49.056;9.240;2022-12-18T08:58:45;109.13;;;41.13;;
30181;SDS011;16990;49.056;9.240;2022-12-18T09:01:11;111.55;;;43.95;;
30181;SDS011;16990;49.056;9.240;2022-12-18T09:03:38;122.28;;;45.92;;
30181;SDS011;16990;49.056;9.240;2022-12-18T09:06:05;113.22;;;46.47;;
30181;SDS011;16990;49.056;9.240;2022-12-18T09:08:31;112.95;;;44.25;;
30181;SDS011;16990;49.056;9.240;2022-12-18T09:10:58;114.60;;;46.67;;
30181;SDS011;16990;49.056;9.240;2022-12-18T09:13:26;111.60;;;46.78;;
30181;SDS011;16990;49.056;9.240;2022-12-18T09:15:53;111.88;;;43.72;;
30181;SDS011;16990;49.056;9.240;2022-12-18T09:18:20;97.68;;;41.72;;
30181;SDS011;16990;49.056;9.240;2022-12-18T09:20:47;123.38;;;49.92;;
30181;SDS011;16990;49.056;9.240;2022-12-18T09:23:15;107.57;;;47.50;;
30181;SDS011;16990;49.056;9.240;2022-12-18T09:25:41;110.18;;;47.25;;
30181;SDS011;16990;49.056;9.240;2022-12-18T09:28:09;93.65;;;39.55;;
30181;SDS011;16990;49.056;9.240;2022-12-18T09:30:38;87.38;;;34.42;;
30181;SDS011;16990;49.056;9.240;2022-12-18T09:33:04;77.90;;;30.77;;
30181;SDS011;16990;49.056;9.240;2022-12-18T09:35:30;87.57;;;33.88;;
30181;SDS011;16990;49.056;9.240;2022-12-18T09:37:57;70.25;;;27.83;;
30181;SDS011;16990;49.056;9.240;2022-12-18T09:40:24;71.78;;;29.33;;
30181;SDS011;16990;49.056;9.240;2022-12-18T09:42:51;72.28;;;30.98;;
30181;SDS011;16990;49.056;9.240;2022-12-18T09:45:20;68.10;;;26.70;;
30181;SDS011;16990;49.056;9.240;2022-12-18T09:47:47;75.22;;;27.80;;
30181;SDS011;16990;49.056;9.240;2022-12-18T09:50:18;77.97;;;27.83;;
30181;SDS011;16990;49.056;9.240;2022-12-18T09:52:47;88.53;;;31.88;;
30181;SDS011;16990;49.056;9.240;2022-12-18T09:55:16;81.95;;;31.40;;
30181;SDS011;16990;49.056;9.240;2022-12-18T09:57:49;78.97;;;30.65;;
30181;SDS011;16990;49.056;9.240;2022-12-18T10:00:17;72.32;;;28.75;;
30181;SDS011;16990;49.056;9.240;2022-12-18T10:02:45;109.53;;;40.45;;
30181;SDS011;16990;49.056;9.240;2022-12-18T10:05:13;172.35;;;54.13;;
30181;SDS011;16990;49.056;9.240;2022-12-18T10:07:53;98.88;;;35.85;;
30181;SDS011;16990;49.056;9.240;2022-12-18T10:10:23;80.28;;;30.25;;
30181;SDS011;16990;49.056;9.240;2022-12-18T10:12:54;63.85;;;25.83;;
30181;SDS011;16990;49.056;9.240;2022-12-18T10:15:23;65.03;;;24.65;;
30181;SDS011;16990;49.056;9.240;2022-12-18T10:17:53;63.50;;;25.52;;
30181;SDS011;16990;49.056;9.240;2022-12-18T10:20:25;62.65;;;26.48;;
30181;SDS011;16990;49.056;9.240;2022-12-18T10:22:56;64.30;;;23.48;;
30181;SDS011;16990;49.056;9.240;2022-12-18T10:25:25;67.57;;;25.08;;
30181;SDS011;16990;49.056;9.240;2022-12-18T10:27:54;61.53;;;24.83;;
30181;SDS011;16990;49.056;9.240;2022-12-18T10:30:22;60.17;;;24.65;;
30181;SDS011;16990;49.056;9.240;2022-12-18T10:32:49;70.82;;;28.00;;
30181;SDS011;16990;49.056;9.240;2022-12-18T10:35:17;68.45;;;25.65;;
30181;SDS011;16990;49.056;9.240;2022-12-18T10:40:49;64.53;;;25.58;;
30181;SDS011;16990;49.056;9.240;2022-12-18T10:43:19;68.95;;;23.20;;
30181;SDS011;16990;49.056;9.240;2022-12-18T10:45:58;68.93;;;25.63;;
30181;SDS011;16990;49.056;9.240;2022-12-18T10:48:25;64.30;;;24.23;;
30181;SDS011;16990;49.056;9.240;2022-12-18T10:50:51;65.78;;;24.85;;
30181;SDS011;16990;49.056;9.240;2022-12-18T10:53:19;57.70;;;24.00;;
30181;SDS011;16990;49.056;9.240;2022-12-18T10:55:46;73.25;;;28.33;;
30181;SDS011;16990;49.056;9.240;2022-12-18T10:58:15;63.47;;;26.13;;
30181;SDS011;16990;49.056;9.240;2022-12-18T11:00:42;69.32;;;28.60;;
30181;SDS011;16990;49.056;9.240;2022-12-18T11:03:15;81.75;;;31.95;;
30181;SDS011;16990;49.056;9.240;2022-12-18T11:06:01;70.53;;;27.80;;
30181;SDS011;16990;49.056;9.240;2022-12-18T11:08:27;67.87;;;26.07;;
30181;SDS011;16990;49.056;9.240;2022-12-18T11:10:54;65.93;;;24.13;;
30181;SDS011;16990;49.056;9.240;2022-12-18T11:13:22;63.17;;;24.50;;
30181;SDS011;16990;49.056;9.240;2022-12-18T11:15:49;71.40;;;26.35;;
30181;SDS011;16990;49.056;9.240;2022-12-18T11:18:19;63.28;;;25.98;;
30181;SDS011;16990;49.056;9.240;2022-12-18T11:20:52;70.35;;;25.20;;
30181;SDS011;16990;49.056;9.240;2022-12-18T11:23:18;66.22;;;25.83;;
30181;SDS011;16990;49.056;9.240;2022-12-18T11:25:50;67.78;;;27.95;;
30181;SDS011;16990;49.056;9.240;2022-12-18T11:28:26;79.50;;;28.80;;
30181;SDS011;16990;49.056;9.240;2022-12-18T11:31:08;60.58;;;25.50;;
30181;SDS011;16990;49.056;9.240;2022-12-18T11:33:35;59.33;;;23.83;;
30181;SDS011;16990;49.056;9.240;2022-12-18T11:36:03;68.40;;;25.77;;
30181;SDS011;16990;49.056;9.240;2022-12-18T11:38:32;64.13;;;24.92;;
30181;SDS011;16990;49.056;9.240;2022-12-18T11:41:02;60.08;;;23.83;;
30181;SDS011;16990;49.056;9.240;2022-12-18T11:43:33;63.45;;;23.50;;
30181;SDS011;16990;49.056;9.240;2022-12-18T11:46:02;67.18;;;24.73;;
30181;SDS011;16990;49.056;9.240;2022-12-18T11:48:30;68.07;;;27.05;;
30181;SDS011;16990;49.056;9.240;2022-12-18T11:50:59;68.47;;;25.10;;
30181;SDS011;16990;49.056;9.240;2022-12-18T11:53:27;72.10;;;30.65;;
30181;SDS011;16990;49.056;9.240;2022-12-18T11:55:56;62.20;;;26.90;;
30181;SDS011;16990;49.056;9.240;2022-12-18T11:58:29;57.47;;;24.02;;
30181;SDS011;16990;49.056;9.240;2022-12-18T12:01:00;60.80;;;26.50;;
30181;SDS011;16990;49.056;9.240;2022-12-18T12:03:37;82.13;;;33.30;;
30181;SDS011;16990;49.056;9.240;2022-12-18T12:06:08;63.70;;;25.92;;
30181;SDS011;16990;49.056;9.240;2022-12-18T12:08:40;57.53;;;23.95;;
30181;SDS011;16990;49.056;9.240;2022-12-18T12:11:11;63.25;;;24.65;;
30181;SDS011;16990;49.056;9.240;2022-12-18T12:13:44;63.35;;;25.70;;
30181;SDS011;16990;49.056;9.240;2022-12-18T12:16:17;59.10;;;24.20;;
30181;SDS011;16990;49.056;9.240;2022-12-18T12:18:54;63.33;;;23.20;;
30181;SDS011;16990;49.056;9.240;2022-12-18T12:21:23;56.97;;;23.40;;
30181;SDS011;16990;49.056;9.240;2022-12-18T12:23:53;65.63;;;26.25;;
30181;SDS011;16990;49.056;9.240;2022-12-18T12:26:22;57.13;;;22.85;;
30181;SDS011;16990;49.056;9.240;2022-12-18T12:29:09;73.90;;;26.95;;
30181;SDS011;16990;49.056;9.240;2022-12-18T12:31:47;57.10;;;24.75;;
30181;SDS011;16990;49.056;9.240;2022-12-18T12:34:16;55.15;;;23.65;;
30181;SDS011;16990;49.056;9.240;2022-12-18T12:36:46;54.58;;;23.67;;
30181;SDS011;16990;49.056;9.240;2022-12-18T12:39:20;55.85;;;25.50;;
30181;SDS011;16990;49.056;9.240;2022-12-18T12:41:46;64.82;;;24.23;;
30181;SDS011;16990;49.056;9.240;2022-12-18T12:44:32;61.72;;;24.30;;
30181;SDS011;16990;49.056;9.240;2022-12-18T12:47:01;56.80;;;23.83;;
30181;SDS011;16990;49.056;9.240;2022-12-18T12:49:31;64.18;;;24.33;;
30181;SDS011;16990;49.056;9.240;2022-12-18T12:51:59;60.15;;;25.17;;
30181;SDS011;16990;49.056;9.240;2022-12-18T12:54:26;63.60;;;25.08;;
30181;SDS011;16990;49.056;9.240;2022-12-18T12:56:54;60.85;;;22.95;;
30181;SDS011;16990;49.056;9.240;2022-12-18T12:59:24;55.33;;;23.40;;
30181;SDS011;16990;49.056;9.240;2022-12-18T13:01:57;60.88;;;23.33;;
30181;SDS011;16990;49.056;9.240;2022-12-18T13:04:29;59.75;;;25.13;;
30181;SDS011;16990;49.056;9.240;2022-12-18T13:06:59;50.22;;;22.50;;
30181;SDS011;16990;49.056;9.240;2022-12-18T13:09:29;58.65;;;24.58;;
30181;SDS011;16990;49.056;9.240;2022-12-18T13:11:57;58.40;;;22.25;;
30181;SDS011;16990;49.056;9.240;2022-12-18T13:14:45;55.50;;;22.60;;
30181;SDS011;16990;49.056;9.240;2022-12-18T13:17:15;56.97;;;23.73;;
30181;SDS011;16990;49.056;9.240;2022-12-18T13:19:43;63.00;;;24.67;;
30181;SDS011;16990;49.056;9.240;2022-12-18T13:22:20;54.65;;;23.73;;
30181;SDS011;16990;49.056;9.240;2022-12-18T13:24:47;64.32;;;22.50;;
30181;SDS011;16990;49.056;9.240;2022-12-18T13:29:55;51.05;;;22.25;;
30181;SDS011;16990;49.056;9.240;2022-12-18T13:32:22;67.30;;;25.85;;
30181;SDS011;16990;49.056;9.240;2022-12-18T13:34:50;57.10;;;23.67;;
30181;SDS011;16990;49.056;9.240;2022-12-18T13:37:41;59.45;;;23.77;;
30181;SDS011;16990;49.056;9.240;2022-12-18T13:42:49;59.45;;;23.15;;
30181;SDS011;16990;49.056;9.240;2022-12-18T13:45:43;53.10;;;23.52;;
30181;SDS011;16990;49.056;9.240;2022-12-18T13:48:14;59.53;;;24.80;;
30181;SDS011;16990;49.056;9.240;2022-12-18T13:50:43;65.93;;;26.13;;
30181;SDS011;16990;49.056;9.240;2022-12-18T13:53:15;57.63;;;24.80;;
30181;SDS011;16990;49.056;9.240;2022-12-18T13:55:45;52.90;;;22.05;;
30181;SDS011;16990;49.056;9.240;2022-12-18T13:58:12;56.78;;;22.08;;
30181;SDS011;16990;49.056;9.240;2022-12-18T14:00:40;53.88;;;23.08;;
30181;SDS011;16990;49.056;9.240;2022-12-18T14:03:15;47.60;;;21.52;;
30181;SDS011;16990;49.056;9.240;2022-12-18T14:05:43;46.50;;;20.67;;
30181;SDS011;16990;49.056;9.240;2022-12-18T14:08:11;49.95;;;20.70;;
30181;SDS011;16990;49.056;9.240;2022-12-18T14:10:39;51.50;;;20.67;;
30181;SDS011;16990;49.056;9.240;2022-12-18T14:13:06;66.60;;;26.40;;
30181;SDS011;16990;49.056;9.240;2022-12-18T14:15:35;66.13;;;26.90;;
30181;SDS011;16990;49.056;9.240;2022-12-18T14:18:08;52.55;;;23.63;;
30181;SDS011;16990;49.056;9.240;2022-12-18T14:20:39;57.40;;;22.05;;
30181;SDS011;16990;49.056;9.240;2022-12-18T14:25:50;61.22;;;23.83;;
30181;SDS011;16990;49.056;9.240;2022-12-18T14:28:16;56.97;;;24.27;;
30181;SDS011;16990;49.056;9.240;2022-12-18T14:30:43;56.72;;;23.65;;
30181;SDS011;16990;49.056;9.240;2022-12-18T14:33:11;91.80;;;37.60;;
30181;SDS011;16990;49.056;9.240;2022-12-18T14:35:38;105.85;;;41.75;;
30181;SDS011;16990;49.056;9.240;2022-12-18T14:40:55;75.60;;;30.48;;
30181;SDS011;16990;49.056;9.240;2022-12-18T14:43:21;69.68;;;30.73;;